sensor_id;sensor_type;location;lat;lon;timestamp;pressure;altitude;pressure_sealevel;temperature;humidity
44765;BME280;30484;52.382;5.260;2023-05-09T00:01:06;101918.19;;;18.18;100.00
44765;BME280;30484;52.382;5.260;2023-05-09T00:03:46;101913.16;;;18.54;100.00
44765;BME280;30484;52.382;5.260;2023-05-09T00:06:20;101912.81;;;18.45;100.00
44765;BME280;30484;52.382;5.260;2023-05-09T00:08:55;101908.91;;;18.50;100.00
44765;BME280;30484;52.382;5.260;2023-05-09T00:11:28;101897.81;;;18.54;100.00
44765;BME280;30484;52.382;5.260;2023-05-09T00:13:58;101902.69;;;18.62;100.00
44765;BME280;30484;52.382;5.260;2023-05-09T00:16:32;101903.91;;;18.43;100.00
44765;BME280;30484;52.382;5.260;2023-05-09T00:19:10;101893.03;;;18.58;100.00
44765;BME280;30484;52.382;5.260;2023-05-09T00:21:40;101892.09;;;18.72;100.00
44765;BME280;30484;52.382;5.260;2023-05-09T00:24:14;101886.94;;;18.82;100.00
44765;BME280;30484;52.382;5.260;2023-05-09T00:26:47;101879.38;;;18.59;100.00
44765;BME280;30484;52.382;5.260;2023-05-09T00:29:17;101877.97;;;18.94;100.00
44765;BME280;30484;52.382;5.260;2023-05-09T00:31:47;101866.22;;;18.80;100.00
44765;BME280;30484;52.382;5.260;2023-05-09T00:34:23;101872.19;;;18.73;100.00
44765;BME280;30484;52.382;5.260;2023-05-09T00:36:58;101878.19;;;18.51;100.00
44765;BME280;30484;52.382;5.260;2023-05-09T00:39:29;101879.25;;;18.48;100.00
44765;BME280;30484;52.382;5.260;2023-05-09T00:42:03;101865.13;;;18.70;100.00
44765;BME280;30484;52.382;5.260;2023-05-09T00:44:35;101856.88;;;18.59;100.00
44765;BME280;30484;52.382;5.260;2023-05-09T00:47:06;101862.38;;;18.44;100.00
44765;BME280;30484;52.382;5.260;2023-05-09T00:49:37;101862.59;;;18.41;100.00
44765;BME280;30484;52.382;5.260;2023-05-09T00:52:12;101868.59;;;18.32;100.00
44765;BME280;30484;52.382;5.260;2023-05-09T00:54:52;101865.06;;;18.44;100.00
44765;BME280;30484;52.382;5.260;2023-05-09T00:57:23;101855.34;;;18.15;100.00
44765;BME280;30484;52.382;5.260;2023-05-09T00:59:55;101855.75;;;17.94;100.00
44765;BME280;30484;52.382;5.260;2023-05-09T01:02:27;101858.63;;;18.05;100.00
44765;BME280;30484;52.382;5.260;2023-05-09T01:05:02;101849.16;;;18.40;100.00
44765;BME280;30484;52.382;5.260;2023-05-09T01:07:40;101856.91;;;17.90;100.00
44765;BME280;30484;52.382;5.260;2023-05-09T01:10:34;101846.13;;;18.44;100.00
44765;BME280;30484;52.382;5.260;2023-05-09T01:13:14;101844.47;;;18.29;100.00
44765;BME280;30484;52.382;5.260;2023-05-09T01:15:57;101849.63;;;18.19;100.00
44765;BME280;30484;52.382;5.260;2023-05-09T01:18:38;101842.41;;;18.33;100.00
44765;BME280;30484;52.382;5.260;2023-05-09T01:21:19;101832.28;;;18.09;100.00
44765;BME280;30484;52.382;5.260;2023-05-09T01:24:31;101848.09;;;17.59;100.00
44765;BME280;30484;52.382;5.260;2023-05-09T01:27:26;101843.63;;;17.58;100.00
44765;BME280;30484;52.382;5.260;2023-05-09T01:30:03;101838.09;;;17.74;100.00
44765;BME280;30484;52.382;5.260;2023-05-09T01:32:35;101835.47;;;17.87;100.00
44765;BME280;30484;52.382;5.260;2023-05-09T01:35:10;101832.22;;;17.82;100.00
44765;BME280;30484;52.382;5.260;2023-05-09T01:37:48;101832.38;;;18.07;100.00
44765;BME280;30484;52.382;5.260;2023-05-09T01:40:20;101832.44;;;17.93;100.00
44765;BME280;30484;52.382;5.260;2023-05-09T01:42:57;101821.44;;;18.09;100.00
44765;BME280;30484;52.382;5.260;2023-05-09T01:45:32;101826.81;;;17.82;100.00
44765;BME280;30484;52.382;5.260;2023-05-09T01:48:04;101821.78;;;17.75;100.00
44765;BME280;30484;52.382;5.260;2023-05-09T01:50:38;101810.03;;;18.31;100.00
44765;BME280;30484;52.382;5.260;2023-05-09T01:53:11;101798.94;;;18.36;100.00
44765;BME280;30484;52.382;5.260;2023-05-09T01:55:43;101814.03;;;17.98;100.00
44765;BME280;30484;52.382;5.260;2023-05-09T01:58:17;101807.41;;;18.17;100.00
44765;BME280;30484;52.382;5.260;2023-05-09T02:00:55;101805.88;;;18.13;100.00
44765;BME280;30484;52.382;5.260;2023-05-09T02:03:29;101808.38;;;17.74;100.00
44765;BME280;30484;52.382;5.260;2023-05-09T02:06:03;101802.78;;;18.19;100.00
44765;BME280;30484;52.382;5.260;2023-05-09T02:08:33;101802.59;;;17.94;100.00
44765;BME280;30484;52.382;5.260;2023-05-09T02:11:05;101793.78;;;17.91;100.00
44765;BME280;30484;52.382;5.260;2023-05-09T02:13:43;101795.72;;;17.89;100.00
44765;BME280;30484;52.382;5.260;2023-05-09T02:16:22;101792.22;;;17.87;100.00
44765;BME280;30484;52.382;5.260;2023-05-09T02:18:55;101795.19;;;17.69;100.00
44765;BME280;30484;52.382;5.260;2023-05-09T02:21:29;101784.22;;;17.85;100.00
44765;BME280;30484;52.382;5.260;2023-05-09T02:24:00;101784.09;;;17.59;100.00
44765;BME280;30484;52.382;5.260;2023-05-09T02:26:30;101784.75;;;18.05;100.00
44765;BME280;30484;52.382;5.260;2023-05-09T02:29:03;101785.47;;;17.94;100.00
44765;BME280;30484;52.382;5.260;2023-05-09T02:31:38;101774.66;;;17.94;100.00
44765;BME280;30484;52.382;5.260;2023-05-09T02:34:11;101774.28;;;18.00;100.00
44765;BME280;30484;52.382;5.260;2023-05-09T02:36:43;101776.53;;;17.79;100.00
44765;BME280;30484;52.382;5.260;2023-05-09T02:39:14;101777.41;;;17.65;100.00
44765;BME280;30484;52.382;5.260;2023-05-09T02:41:48;101784.03;;;17.47;100.00
44765;BME280;30484;52.382;5.260;2023-05-09T02:44:20;101781.53;;;17.43;100.00
44765;BME280;30484;52.382;5.260;2023-05-09T02:46:53;101782.13;;;17.76;100.00
44765;BME280;30484;52.382;5.260;2023-05-09T02:49:25;101777.38;;;17.38;100.00
44765;BME280;30484;52.382;5.260;2023-05-09T02:52:02;101785.00;;;17.17;100.00
44765;BME280;30484;52.382;5.260;2023-05-09T02:54:32;101772.84;;;17.38;100.00
44765;BME280;30484;52.382;5.260;2023-05-09T02:57:03;101771.53;;;17.58;100.00
44765;BME280;30484;52.382;5.260;2023-05-09T02:59:32;101772.56;;;17.14;100.00
44765;BME280;30484;52.382;5.260;2023-05-09T03:02:01;101760.94;;;17.83;100.00
44765;BME280;30484;52.382;5.260;2023-05-09T03:04:29;101760.50;;;17.76;100.00
44765;BME280;30484;52.382;5.260;2023-05-09T03:06:57;101751.97;;;17.55;100.00
44765;BME280;30484;52.382;5.260;2023-05-09T03:09:26;101752.78;;;17.84;100.00
44765;BME280;30484;52.382;5.260;2023-05-09T03:11:54;101751.59;;;17.47;100.00
44765;BME280;30484;52.382;5.260;2023-05-09T03:14:23;101743.44;;;17.34;100.00
44765;BME280;30484;52.382;5.260;2023-05-09T03:16:51;101743.50;;;17.47;100.00
44765;BME280;30484;52.382;5.260;2023-05-09T03:19:21;101727.94;;;17.08;100.00
44765;BME280;30484;52.382;5.260;2023-05-09T03:21:51;101733.31;;;17.37;100.00
44765;BME280;30484;52.382;5.260;2023-05-09T03:24:21;101732.16;;;17.41;100.00
44765;BME280;30484;52.382;5.260;2023-05-09T03:26:51;101725.34;;;17.90;100.00
44765;BME280;30484;52.382;5.260;2023-05-09T03:29:19;101712.13;;;17.86;100.00
44765;BME280;30484;52.382;5.260;2023-05-09T03:31:48;101710.38;;;17.85;100.00
44765;BME280;30484;52.382;5.260;2023-05-09T03:34:17;101718.19;;;17.62;100.00
44765;BME280;30484;52.382;5.260;2023-05-09T03:36:46;101708.63;;;17.84;100.00
44765;BME280;30484;52.382;5.260;2023-05-09T03:39:15;101708.09;;;17.79;100.00
44765;BME280;30484;52.382;5.260;2023-05-09T03:41:43;101707.53;;;17.73;100.00
44765;BME280;30484;52.382;5.260;2023-05-09T03:44:11;101699.53;;;17.99;100.00
44765;BME280;30484;52.382;5.260;2023-05-09T03:46:40;101698.75;;;17.70;100.00
44765;BME280;30484;52.382;5.260;2023-05-09T03:49:08;101692.31;;;17.58;100.00
44765;BME280;30484;52.382;5.260;2023-05-09T03:51:36;101689.38;;;17.48;100.00
44765;BME280;30484;52.382;5.260;2023-05-09T03:54:09;101682.59;;;17.55;100.00
44765;BME280;30484;52.382;5.260;2023-05-09T03:56:38;101684.69;;;17.65;100.00
44765;BME280;30484;52.382;5.260;2023-05-09T03:59:09;101689.84;;;17.55;100.00
44765;BME280;30484;52.382;5.260;2023-05-09T04:01:37;101691.28;;;17.19;100.00
44765;BME280;30484;52.382;5.260;2023-05-09T04:04:07;101686.13;;;17.70;100.00
44765;BME280;30484;52.382;5.260;2023-05-09T04:06:35;101676.88;;;17.87;100.00
44765;BME280;30484;52.382;5.260;2023-05-09T04:09:05;101680.50;;;17.04;100.00
44765;BME280;30484;52.382;5.260;2023-05-09T04:11:41;101675.47;;;17.54;100.00
44765;BME280;30484;52.382;5.260;2023-05-09T04:14:09;101670.84;;;17.69;100.00
44765;BME280;30484;52.382;5.260;2023-05-09T04:16:37;101688.16;;;17.39;100.00
44765;BME280;30484;52.382;5.260;2023-05-09T04:19:09;101670.81;;;17.56;100.00
44765;BME280;30484;52.382;5.260;2023-05-09T04:21:39;101664.22;;;16.91;100.00
44765;BME280;30484;52.382;5.260;2023-05-09T04:24:08;101679.94;;;16.99;100.00
44765;BME280;30484;52.382;5.260;2023-05-09T04:26:38;101679.34;;;17.50;100.00
44765;BME280;30484;52.382;5.260;2023-05-09T04:29:09;101679.13;;;16.68;100.00
44765;BME280;30484;52.382;5.260;2023-05-09T04:31:41;101678.41;;;16.95;100.00
44765;BME280;30484;52.382;5.260;2023-05-09T04:34:13;101678.38;;;17.10;100.00
44765;BME280;30484;52.382;5.260;2023-05-09T04:36:45;101670.53;;;17.19;100.00
44765;BME280;30484;52.382;5.260;2023-05-09T04:39:14;101669.41;;;17.09;100.00
44765;BME280;30484;52.382;5.260;2023-05-09T04:41:46;101669.53;;;16.93;100.00
44765;BME280;30484;52.382;5.260;2023-05-09T04:44:16;101673.88;;;17.37;100.00
44765;BME280;30484;52.382;5.260;2023-05-09T04:46:45;101668.97;;;17.30;100.00
44765;BME280;30484;52.382;5.260;2023-05-09T04:49:13;101664.72;;;17.25;100.00
44765;BME280;30484;52.382;5.260;2023-05-09T04:51:42;101650.91;;;17.45;100.00
44765;BME280;30484;52.382;5.260;2023-05-09T04:54:13;101657.63;;;17.24;100.00
44765;BME280;30484;52.382;5.260;2023-05-09T04:56:42;101648.72;;;17.50;100.00
44765;BME280;30484;52.382;5.260;2023-05-09T04:59:11;101642.59;;;17.48;100.00
44765;BME280;30484;52.382;5.260;2023-05-09T05:01:39;101628.56;;;17.28;100.00
44765;BME280;30484;52.382;5.260;2023-05-09T05:04:10;101642.91;;;17.01;100.00
44765;BME280;30484;52.382;5.260;2023-05-09T05:06:39;101633.16;;;17.13;100.00
44765;BME280;30484;52.382;5.260;2023-05-09T05:09:07;101633.25;;;17.12;100.00
44765;BME280;30484;52.382;5.260;2023-05-09T05:11:36;101633.91;;;17.15;100.00
44765;BME280;30484;52.382;5.260;2023-05-09T05:14:04;101624.47;;;17.35;100.00
44765;BME280;30484;52.382;5.260;2023-05-09T05:16:37;101612.06;;;17.73;100.00
44765;BME280;30484;52.382;5.260;2023-05-09T05:19:05;101604.75;;;17.48;100.00
44765;BME280;30484;52.382;5.260;2023-05-09T05:21:36;101616.47;;;17.61;100.00
44765;BME280;30484;52.382;5.260;2023-05-09T05:24:05;101626.00;;;17.80;100.00
44765;BME280;30484;52.382;5.260;2023-05-09T05:26:33;101617.50;;;17.46;100.00
44765;BME280;30484;52.382;5.260;2023-05-09T05:29:02;101611.44;;;17.15;100.00
44765;BME280;30484;52.382;5.260;2023-05-09T05:31:30;101616.13;;;17.66;100.00
44765;BME280;30484;52.382;5.260;2023-05-09T05:33:59;101607.31;;;17.36;100.00
44765;BME280;30484;52.382;5.260;2023-05-09T05:36:28;101597.91;;;17.69;100.00
44765;BME280;30484;52.382;5.260;2023-05-09T05:38:57;101587.56;;;17.89;100.00
44765;BME280;30484;52.382;5.260;2023-05-09T05:41:25;101588.78;;;18.10;100.00
44765;BME280;30484;52.382;5.260;2023-05-09T05:43:53;101573.31;;;18.13;100.00
44765;BME280;30484;52.382;5.260;2023-05-09T05:46:21;101589.97;;;18.19;100.00
44765;BME280;30484;52.382;5.260;2023-05-09T05:48:50;101588.84;;;17.83;100.00
44765;BME280;30484;52.382;5.260;2023-05-09T05:51:20;101585.97;;;18.12;100.00
44765;BME280;30484;52.382;5.260;2023-05-09T05:53:48;101584.06;;;17.87;100.00
44765;BME280;30484;52.382;5.260;2023-05-09T05:56:16;101570.06;;;17.94;100.00
44765;BME280;30484;52.382;5.260;2023-05-09T05:58:45;101569.84;;;18.36;100.00
44765;BME280;30484;52.382;5.260;2023-05-09T06:01:13;101573.97;;;18.03;100.00
44765;BME280;30484;52.382;5.260;2023-05-09T06:03:44;101567.53;;;17.79;100.00
44765;BME280;30484;52.382;5.260;2023-05-09T06:06:12;101567.69;;;18.16;100.00
44765;BME280;30484;52.382;5.260;2023-05-09T06:08:42;101553.06;;;18.18;100.00
44765;BME280;30484;52.382;5.260;2023-05-09T06:11:10;101558.59;;;18.17;100.00
44765;BME280;30484;52.382;5.260;2023-05-09T06:13:39;101562.63;;;17.58;100.00
44765;BME280;30484;52.382;5.260;2023-05-09T06:16:08;101556.78;;;17.51;100.00
44765;BME280;30484;52.382;5.260;2023-05-09T06:18:39;101563.41;;;17.60;100.00
44765;BME280;30484;52.382;5.260;2023-05-09T06:21:07;101554.94;;;17.92;100.00
44765;BME280;30484;52.382;5.260;2023-05-09T06:23:35;101554.44;;;17.72;100.00
44765;BME280;30484;52.382;5.260;2023-05-09T06:26:12;101549.94;;;17.86;100.00
44765;BME280;30484;52.382;5.260;2023-05-09T06:28:40;101553.38;;;17.88;100.00
44765;BME280;30484;52.382;5.260;2023-05-09T06:31:09;101559.22;;;17.82;100.00
44765;BME280;30484;52.382;5.260;2023-05-09T06:33:37;101553.97;;;18.19;100.00
44765;BME280;30484;52.382;5.260;2023-05-09T06:36:06;101551.94;;;17.56;100.00
44765;BME280;30484;52.382;5.260;2023-05-09T06:38:34;101542.94;;;17.96;100.00
44765;BME280;30484;52.382;5.260;2023-05-09T06:41:03;101550.56;;;18.28;100.00
44765;BME280;30484;52.382;5.260;2023-05-09T06:43:33;101543.19;;;17.66;100.00
44765;BME280;30484;52.382;5.260;2023-05-09T06:46:01;101545.53;;;17.45;100.00
44765;BME280;30484;52.382;5.260;2023-05-09T06:48:30;101545.63;;;18.09;100.00
44765;BME280;30484;52.382;5.260;2023-05-09T06:50:58;101550.22;;;17.81;100.00
44765;BME280;30484;52.382;5.260;2023-05-09T06:53:26;101541.69;;;17.74;100.00
44765;BME280;30484;52.382;5.260;2023-05-09T06:55:55;101545.50;;;17.85;100.00
44765;BME280;30484;52.382;5.260;2023-05-09T06:58:23;101536.72;;;18.20;100.00
44765;BME280;30484;52.382;5.260;2023-05-09T07:00:53;101528.44;;;18.10;100.00
44765;BME280;30484;52.382;5.260;2023-05-09T07:03:21;101540.72;;;17.75;100.00
44765;BME280;30484;52.382;5.260;2023-05-09T07:05:50;101530.38;;;17.95;100.00
44765;BME280;30484;52.382;5.260;2023-05-09T07:08:18;101528.63;;;18.07;100.00
44765;BME280;30484;52.382;5.260;2023-05-09T07:10:47;101524.63;;;18.00;100.00
44765;BME280;30484;52.382;5.260;2023-05-09T07:13:15;101521.50;;;18.19;100.00
44765;BME280;30484;52.382;5.260;2023-05-09T07:15:43;101519.88;;;18.16;100.00
44765;BME280;30484;52.382;5.260;2023-05-09T07:18:14;101520.09;;;17.74;100.00
44765;BME280;30484;52.382;5.260;2023-05-09T07:20:43;101521.78;;;17.75;100.00
44765;BME280;30484;52.382;5.260;2023-05-09T07:23:12;101518.78;;;17.54;100.00
44765;BME280;30484;52.382;5.260;2023-05-09T07:25:40;101525.25;;;17.52;100.00
44765;BME280;30484;52.382;5.260;2023-05-09T07:28:10;101525.25;;;17.65;100.00
44765;BME280;30484;52.382;5.260;2023-05-09T07:30:38;101519.94;;;17.10;100.00
44765;BME280;30484;52.382;5.260;2023-05-09T07:33:06;101521.75;;;17.50;100.00
44765;BME280;30484;52.382;5.260;2023-05-09T07:35:36;101527.44;;;17.19;100.00
44765;BME280;30484;52.382;5.260;2023-05-09T07:38:04;101523.97;;;17.57;100.00
44765;BME280;30484;52.382;5.260;2023-05-09T07:40:33;101525.72;;;17.84;100.00
44765;BME280;30484;52.382;5.260;2023-05-09T07:43:02;101509.28;;;17.74;100.00
44765;BME280;30484;52.382;5.260;2023-05-09T07:45:31;101515.75;;;17.59;100.00
44765;BME280;30484;52.382;5.260;2023-05-09T07:47:59;101513.44;;;17.66;100.00
44765;BME280;30484;52.382;5.260;2023-05-09T07:50:27;101524.19;;;17.27;100.00
44765;BME280;30484;52.382;5.260;2023-05-09T07:52:58;101508.59;;;17.84;100.00
44765;BME280;30484;52.382;5.260;2023-05-09T07:55:27;101502.09;;;17.48;100.00
44765;BME280;30484;52.382;5.260;2023-05-09T07:57:55;101512.13;;;17.33;100.00
44765;BME280;30484;52.382;5.260;2023-05-09T08:00:24;101500.81;;;17.40;100.00
44765;BME280;30484;52.382;5.260;2023-05-09T08:02:52;101502.03;;;17.09;100.00
44765;BME280;30484;52.382;5.260;2023-05-09T08:05:21;101496.72;;;17.73;100.00
44765;BME280;30484;52.382;5.260;2023-05-09T08:07:49;101483.72;;;17.66;100.00
44765;BME280;30484;52.382;5.260;2023-05-09T08:10:28;101487.59;;;17.23;100.00
44765;BME280;30484;52.382;5.260;2023-05-09T08:13:10;101494.50;;;17.27;100.00
44765;BME280;30484;52.382;5.260;2023-05-09T08:15:38;101487.94;;;17.83;100.00
44765;BME280;30484;52.382;5.260;2023-05-09T08:18:07;101471.88;;;17.94;100.00
44765;BME280;30484;52.382;5.260;2023-05-09T08:20:35;101477.44;;;17.39;100.00
44765;BME280;30484;52.382;5.260;2023-05-09T08:23:03;101470.88;;;17.82;100.00
44765;BME280;30484;52.382;5.260;2023-05-09T08:25:33;101469.03;;;18.08;100.00
44765;BME280;30484;52.382;5.260;2023-05-09T08:28:02;101464.84;;;18.04;100.00
44765;BME280;30484;52.382;5.260;2023-05-09T08:30:30;101454.34;;;17.61;100.00
44765;BME280;30484;52.382;5.260;2023-05-09T08:32:59;101454.09;;;17.90;100.00
44765;BME280;30484;52.382;5.260;2023-05-09T08:35:27;101462.47;;;18.37;100.00
44765;BME280;30484;52.382;5.260;2023-05-09T08:37:56;101445.94;;;17.79;100.00
44765;BME280;30484;52.382;5.260;2023-05-09T08:40:25;101455.84;;;18.04;100.00
44765;BME280;30484;52.382;5.260;2023-05-09T08:42:56;101448.53;;;17.67;100.00
44765;BME280;30484;52.382;5.260;2023-05-09T08:45:26;101439.69;;;18.52;100.00
44765;BME280;30484;52.382;5.260;2023-05-09T08:47:56;101438.38;;;18.58;100.00
44765;BME280;30484;52.382;5.260;2023-05-09T08:50:25;101435.00;;;18.43;100.00
44765;BME280;30484;52.382;5.260;2023-05-09T08:52:54;101438.31;;;18.09;100.00
44765;BME280;30484;52.382;5.260;2023-05-09T08:55:24;101427.00;;;18.41;100.00
44765;BME280;30484;52.382;5.260;2023-05-09T08:57:54;101425.19;;;18.29;100.00
44765;BME280;30484;52.382;5.260;2023-05-09T09:00:26;101415.75;;;17.98;100.00
44765;BME280;30484;52.382;5.260;2023-05-09T09:02:56;101418.28;;;18.25;100.00
44765;BME280;30484;52.382;5.260;2023-05-09T09:05:26;101417.25;;;18.02;100.00
44765;BME280;30484;52.382;5.260;2023-05-09T09:08:01;101412.75;;;18.26;100.00
44765;BME280;30484;52.382;5.260;2023-05-09T09:10:39;101416.59;;;18.35;100.00
44765;BME280;30484;52.382;5.260;2023-05-09T09:13:29;101416.06;;;18.06;100.00
44765;BME280;30484;52.382;5.260;2023-05-09T09:15:59;101416.63;;;17.72;100.00
44765;BME280;30484;52.382;5.260;2023-05-09T09:18:29;101412.97;;;18.23;100.00
44765;BME280;30484;52.382;5.260;2023-05-09T09:21:04;101406.09;;;18.06;100.00
44765;BME280;30484;52.382;5.260;2023-05-09T09:23:33;101401.69;;;17.80;100.00
44765;BME280;30484;52.382;5.260;2023-05-09T09:26:02;101410.69;;;17.93;100.00
44765;BME280;30484;52.382;5.260;2023-05-09T09:28:32;101404.47;;;18.65;100.00
44765;BME280;30484;52.382;5.260;2023-05-09T09:31:01;101396.03;;;18.45;100.00
44765;BME280;30484;52.382;5.260;2023-05-09T09:33:29;101389.38;;;17.75;100.00
44765;BME280;30484;52.382;5.260;2023-05-09T09:35:57;101394.84;;;17.87;100.00
44765;BME280;30484;52.382;5.260;2023-05-09T09:38:26;101399.97;;;18.04;100.00
44765;BME280;30484;52.382;5.260;2023-05-09T09:40:58;101395.38;;;18.42;100.00
44765;BME280;30484;52.382;5.260;2023-05-09T09:43:27;101394.34;;;18.32;100.00
44765;BME280;30484;52.382;5.260;2023-05-09T09:46:00;101393.69;;;18.28;100.00
44765;BME280;30484;52.382;5.260;2023-05-09T09:48:32;101381.84;;;18.66;100.00
44765;BME280;30484;52.382;5.260;2023-05-09T09:51:08;101387.97;;;18.20;100.00
44765;BME280;30484;52.382;5.260;2023-05-09T09:53:41;101379.31;;;18.52;100.00
44765;BME280;30484;52.382;5.260;2023-05-09T09:56:11;101387.13;;;18.19;100.00
44765;BME280;30484;52.382;5.260;2023-05-09T09:58:40;101384.69;;;18.03;100.00
44765;BME280;30484;52.382;5.260;2023-05-09T10:01:11;101384.31;;;17.58;100.00
44765;BME280;30484;52.382;5.260;2023-05-09T10:03:42;101380.94;;;17.93;100.00
44765;BME280;30484;52.382;5.260;2023-05-09T10:06:14;101372.59;;;17.83;100.00
44765;BME280;30484;52.382;5.260;2023-05-09T10:08:45;101522.91;;;18.11;100.00
44765;BME280;30484;52.382;5.260;2023-05-09T10:11:15;101404.13;;;18.21;100.00
44765;BME280;30484;52.382;5.260;2023-05-09T10:13:47;101392.22;;;18.48;100.00
44765;BME280;30484;52.382;5.260;2023-05-09T10:16:18;101382.22;;;18.37;100.00
44765;BME280;30484;52.382;5.260;2023-05-09T10:19:04;101376.91;;;18.36;100.00
44765;BME280;30484;52.382;5.260;2023-05-09T10:21:42;101380.13;;;18.41;100.00
44765;BME280;30484;52.382;5.260;2023-05-09T10:24:11;101376.66;;;18.63;100.00
44765;BME280;30484;52.382;5.260;2023-05-09T10:26:45;101374.66;;;18.54;100.00
44765;BME280;30484;52.382;5.260;2023-05-09T10:29:17;101369.22;;;18.05;100.00
44765;BME280;30484;52.382;5.260;2023-05-09T10:31:53;101374.47;;;18.20;100.00
44765;BME280;30484;52.382;5.260;2023-05-09T10:34:26;101381.72;;;17.69;100.00
44765;BME280;30484;52.382;5.260;2023-05-09T10:36:57;101374.84;;;17.89;100.00
44765;BME280;30484;52.382;5.260;2023-05-09T10:39:28;101366.75;;;17.89;100.00
44765;BME280;30484;52.382;5.260;2023-05-09T10:41:57;101358.91;;;17.73;100.00
44765;BME280;30484;52.382;5.260;2023-05-09T10:44:27;101362.00;;;18.54;100.00
44765;BME280;30484;52.382;5.260;2023-05-09T10:47:04;101363.81;;;18.54;100.00
44765;BME280;30484;52.382;5.260;2023-05-09T10:49:33;101341.28;;;18.77;100.00
44765;BME280;30484;52.382;5.260;2023-05-09T10:52:05;101341.25;;;18.66;100.00
44765;BME280;30484;52.382;5.260;2023-05-09T10:54:35;101336.94;;;18.39;100.00
44765;BME280;30484;52.382;5.260;2023-05-09T10:57:06;101343.84;;;17.95;100.00
44765;BME280;30484;52.382;5.260;2023-05-09T10:59:39;101339.59;;;18.28;100.00
44765;BME280;30484;52.382;5.260;2023-05-09T11:02:13;101348.63;;;17.91;100.00
44765;BME280;30484;52.382;5.260;2023-05-09T11:04:42;101344.94;;;17.80;100.00
44765;BME280;30484;52.382;5.260;2023-05-09T11:07:25;101331.59;;;17.52;100.00
44765;BME280;30484;52.382;5.260;2023-05-09T11:10:07;101356.81;;;18.03;100.00
44765;BME280;30484;52.382;5.260;2023-05-09T11:12:52;101338.34;;;18.21;100.00
44765;BME280;30484;52.382;5.260;2023-05-09T11:15:24;101332.84;;;17.72;100.00
44765;BME280;30484;52.382;5.260;2023-05-09T11:18:06;101326.59;;;18.33;100.00
44765;BME280;30484;52.382;5.260;2023-05-09T11:20:41;101324.13;;;18.54;100.00
44765;BME280;30484;52.382;5.260;2023-05-09T11:23:10;101325.34;;;18.26;100.00
44765;BME280;30484;52.382;5.260;2023-05-09T11:25:39;101318.25;;;18.36;100.00
44765;BME280;30484;52.382;5.260;2023-05-09T11:28:25;101309.81;;;18.52;100.00
44765;BME280;30484;52.382;5.260;2023-05-09T11:31:08;101297.03;;;18.19;100.00
44765;BME280;30484;52.382;5.260;2023-05-09T11:33:40;101292.09;;;18.48;100.00
44765;BME280;30484;52.382;5.260;2023-05-09T11:36:23;101288.34;;;18.62;100.00
44765;BME280;30484;52.382;5.260;2023-05-09T11:39:02;101297.34;;;18.38;100.00
44765;BME280;30484;52.382;5.260;2023-05-09T11:41:37;101288.75;;;18.33;100.00
44765;BME280;30484;52.382;5.260;2023-05-09T11:44:16;101300.19;;;18.13;100.00
44765;BME280;30484;52.382;5.260;2023-05-09T11:46:47;101287.63;;;17.87;100.00
44765;BME280;30484;52.382;5.260;2023-05-09T11:49:17;101298.00;;;18.18;100.00
44765;BME280;30484;52.382;5.260;2023-05-09T11:51:46;101302.34;;;17.83;100.00
44765;BME280;30484;52.382;5.260;2023-05-09T11:54:15;101285.41;;;18.05;100.00
44765;BME280;30484;52.382;5.260;2023-05-09T11:56:44;101296.41;;;17.78;100.00
44765;BME280;30484;52.382;5.260;2023-05-09T11:59:12;101277.34;;;17.92;100.00
44765;BME280;30484;52.382;5.260;2023-05-09T12:01:42;101281.72;;;18.06;100.00
44765;BME280;30484;52.382;5.260;2023-05-09T12:04:10;101277.34;;;18.52;100.00
44765;BME280;30484;52.382;5.260;2023-05-09T12:06:46;101271.56;;;18.45;100.00
44765;BME280;30484;52.382;5.260;2023-05-09T12:09:14;101275.63;;;18.16;100.00
44765;BME280;30484;52.382;5.260;2023-05-09T12:11:47;101268.59;;;17.89;100.00
44765;BME280;30484;52.382;5.260;2023-05-09T12:14:26;101270.97;;;18.18;100.00
44765;BME280;30484;52.382;5.260;2023-05-09T12:16:55;101271.88;;;18.29;100.00
44765;BME280;30484;52.382;5.260;2023-05-09T12:19:24;101265.28;;;18.09;100.00
44765;BME280;30484;52.382;5.260;2023-05-09T12:21:59;101256.72;;;18.27;100.00
44765;BME280;30484;52.382;5.260;2023-05-09T12:24:29;101254.66;;;18.77;100.00
44765;BME280;30484;52.382;5.260;2023-05-09T12:26:58;101249.50;;;18.74;100.00
44765;BME280;30484;52.382;5.260;2023-05-09T12:29:29;101257.56;;;17.92;100.00
44765;BME280;30484;52.382;5.260;2023-05-09T12:31:57;101267.75;;;17.75;100.00
44765;BME280;30484;52.382;5.260;2023-05-09T12:34:27;101252.72;;;18.44;100.00
44765;BME280;30484;52.382;5.260;2023-05-09T12:36:58;101259.03;;;18.44;100.00
44765;BME280;30484;52.382;5.260;2023-05-09T12:39:29;101247.00;;;18.49;100.00
44765;BME280;30484;52.382;5.260;2023-05-09T12:41:58;101245.69;;;18.30;100.00
44765;BME280;30484;52.382;5.260;2023-05-09T12:44:28;101241.88;;;18.79;100.00
44765;BME280;30484;52.382;5.260;2023-05-09T12:46:59;101246.16;;;18.24;100.00
44765;BME280;30484;52.382;5.260;2023-05-09T12:49:29;101242.88;;;18.32;100.00
44765;BME280;30484;52.382;5.260;2023-05-09T12:51:59;101250.94;;;18.20;100.00
44765;BME280;30484;52.382;5.260;2023-05-09T12:54:30;101245.09;;;18.02;100.00
44765;BME280;30484;52.382;5.260;2023-05-09T12:56:59;101244.41;;;18.11;100.00
44765;BME280;30484;52.382;5.260;2023-05-09T12:59:28;101236.25;;;18.36;100.00
44765;BME280;30484;52.382;5.260;2023-05-09T13:01:58;101232.06;;;18.32;100.00